createdAt,value
2022-08-25T00:02:06.805Z,2.10
2022-08-25T00:04:35.810Z,2.17
2022-08-25T00:07:04.823Z,2.35
2022-08-25T00:09:32.593Z,2.63
2022-08-25T00:11:59.554Z,2.30
2022-08-25T00:14:37.266Z,2.40
2022-08-25T00:17:06.050Z,2.47
2022-08-25T00:19:34.494Z,2.30
2022-08-25T00:22:01.757Z,2.42
2022-08-25T00:24:28.833Z,2.50
2022-08-25T00:26:57.530Z,2.15
2022-08-25T00:29:28.040Z,2.35
2022-08-25T00:31:56.078Z,2.50
2022-08-25T00:34:29.012Z,2.45
2022-08-25T00:36:55.430Z,2.70
2022-08-25T00:39:23.189Z,3.10
2022-08-25T00:41:52.874Z,3.15
2022-08-25T00:44:20.245Z,2.42
2022-08-25T00:46:52.937Z,3.08
2022-08-25T00:49:27.317Z,2.63
2022-08-25T00:54:34.929Z,2.75
2022-08-25T00:57:02.026Z,3.10
2022-08-25T00:59:28.837Z,2.95
2022-08-25T01:01:56.406Z,3.42
2022-08-25T01:04:23.669Z,3.15
2022-08-25T01:06:50.175Z,3.00
2022-08-25T01:09:17.098Z,3.15
2022-08-25T01:11:44.467Z,3.42
2022-08-25T01:14:12.576Z,2.78
2022-08-25T01:16:39.630Z,3.40
2022-08-25T01:19:09.097Z,3.28
2022-08-25T01:21:49.818Z,2.85
2022-08-25T01:24:24.359Z,3.50
2022-08-25T01:26:50.754Z,3.70
2022-08-25T01:29:25.136Z,3.55
2022-08-25T01:34:20.123Z,3.67
2022-08-25T01:36:46.585Z,3.05
2022-08-25T01:39:14.134Z,3.15
2022-08-25T01:41:51.334Z,3.35
2022-08-25T01:44:18.445Z,3.30
2022-08-25T01:46:45.228Z,3.63
2022-08-25T01:49:11.625Z,3.50
2022-08-25T01:51:42.791Z,3.42
2022-08-25T01:54:09.192Z,3.85
2022-08-25T01:56:35.621Z,3.08
2022-08-25T01:59:02.104Z,3.35
2022-08-25T02:01:28.881Z,3.13
2022-08-25T02:03:56.502Z,3.35
2022-08-25T02:06:33.774Z,3.42
2022-08-25T02:09:18.538Z,3.92
2022-08-25T02:14:13.854Z,3.30
2022-08-25T02:16:41.489Z,3.67
2022-08-25T02:19:10.203Z,3.70
2022-08-25T02:21:36.782Z,3.35
2022-08-25T02:24:03.621Z,3.50
2022-08-25T02:26:30.069Z,3.35
2022-08-25T02:28:56.430Z,3.90
2022-08-25T02:31:24.805Z,3.67
2022-08-25T02:33:51.591Z,3.63
2022-08-25T02:36:18.664Z,3.65
2022-08-25T02:38:45.473Z,3.60
2022-08-25T02:41:20.184Z,3.75
2022-08-25T02:43:48.481Z,3.53
2022-08-25T02:46:15.688Z,3.50
2022-08-25T02:48:42.146Z,3.90
2022-08-25T02:51:09.525Z,4.10
2022-08-25T02:53:39.631Z,3.25
2022-08-25T02:56:10.258Z,3.53
2022-08-25T02:58:37.611Z,3.88
2022-08-25T03:01:05.118Z,3.75
2022-08-25T03:03:32.836Z,4.05
2022-08-25T03:06:02.231Z,3.72
2022-08-25T03:08:28.666Z,3.78
2022-08-25T03:10:55.067Z,4.03
2022-08-25T03:13:21.426Z,4.50
2022-08-25T03:15:47.969Z,4.45
2022-08-25T03:18:15.941Z,2.50
2022-08-25T03:20:44.438Z,2.45
2022-08-25T03:23:10.820Z,3.15
2022-08-25T03:26:00.624Z,2.75
2022-08-25T03:28:31.184Z,3.78
2022-08-25T03:30:57.597Z,4.50
2022-08-25T03:33:23.946Z,4.03
2022-08-25T03:35:50.367Z,4.60
2022-08-25T03:38:16.885Z,3.95
2022-08-25T03:40:43.321Z,4.65
2022-08-25T03:43:09.686Z,4.50
2022-08-25T03:45:40.688Z,4.55
2022-08-25T03:48:07.127Z,4.35
2022-08-25T03:50:36.108Z,4.55
2022-08-25T03:53:02.662Z,4.55
2022-08-25T03:55:29.102Z,5.15
2022-08-25T03:57:59.025Z,5.10
2022-08-25T04:00:25.435Z,5.25
2022-08-25T04:02:51.891Z,4.60
2022-08-25T04:05:18.335Z,4.78
2022-08-25T04:07:45.970Z,5.68
2022-08-25T04:10:12.431Z,5.20
2022-08-25T04:12:38.896Z,8.52
2022-08-25T04:15:07.014Z,12.27
2022-08-25T04:17:33.764Z,10.18
2022-08-25T04:20:01.882Z,8.25
2022-08-25T04:22:29.870Z,7.68
2022-08-25T04:24:56.449Z,6.60
2022-08-25T04:27:22.819Z,6.95
2022-08-25T04:29:49.261Z,6.13
2022-08-25T04:32:15.622Z,5.95
2022-08-25T04:34:43.341Z,5.57
2022-08-25T04:37:10.062Z,6.18
2022-08-25T04:39:36.471Z,5.32
2022-08-25T04:42:03.063Z,6.22
2022-08-25T04:44:32.697Z,5.30
2022-08-25T04:47:01.075Z,5.50
2022-08-25T04:49:28.510Z,5.85
2022-08-25T04:51:56.214Z,6.43
2022-08-25T04:54:23.074Z,5.47
2022-08-25T04:56:54.624Z,5.88
2022-08-25T04:59:30.399Z,5.85
2022-08-25T05:01:58.577Z,5.85
2022-08-25T05:04:28.024Z,5.13
2022-08-25T05:06:56.122Z,6.18
2022-08-25T05:09:22.475Z,5.68
2022-08-25T05:11:49.174Z,6.20
2022-08-25T05:14:18.116Z,5.63
2022-08-25T05:16:45.108Z,5.93
2022-08-25T05:19:11.550Z,6.07
2022-08-25T05:21:38.233Z,5.65
2022-08-25T05:24:04.733Z,6.47
2022-08-25T05:26:32.565Z,6.45
2022-08-25T05:29:00.879Z,6.65
2022-08-25T05:31:28.198Z,6.63
2022-08-25T05:33:55.214Z,5.60
2022-08-25T05:36:22.631Z,6.40
2022-08-25T05:38:49.585Z,6.15
2022-08-25T05:41:18.975Z,6.15
2022-08-25T05:43:47.895Z,6.85
2022-08-25T05:46:15.021Z,6.80
2022-08-25T05:48:41.898Z,6.00
2022-08-25T05:51:12.962Z,6.57
2022-08-25T05:53:41.624Z,6.65
2022-08-25T05:56:08.619Z,6.85
2022-08-25T05:58:36.240Z,6.90
2022-08-25T06:01:22.965Z,8.05
2022-08-25T06:03:50.912Z,6.82
2022-08-25T06:06:17.486Z,6.72
2022-08-25T06:08:44.617Z,6.20
2022-08-25T06:11:12.727Z,6.65
2022-08-25T06:13:40.132Z,7.78
2022-08-25T06:16:06.802Z,6.97
2022-08-25T06:18:33.311Z,6.75
2022-08-25T06:20:59.949Z,7.32
2022-08-25T06:23:26.373Z,6.70
2022-08-25T06:25:54.045Z,7.20
2022-08-25T06:28:21.071Z,7.07
2022-08-25T06:30:47.890Z,7.05
2022-08-25T06:33:15.063Z,7.28
2022-08-25T06:35:42.928Z,7.88
2022-08-25T06:38:10.141Z,7.80
2022-08-25T06:40:37.025Z,8.07
2022-08-25T06:43:06.674Z,7.13
2022-08-25T06:45:33.057Z,7.47
2022-08-25T06:47:59.519Z,7.78
2022-08-25T06:50:25.982Z,7.70
2022-08-25T06:52:52.419Z,7.97
2022-08-25T06:55:19.037Z,8.40
2022-08-25T06:57:45.646Z,7.95
2022-08-25T07:00:12.593Z,7.53
2022-08-25T07:02:39.325Z,7.85
2022-08-25T07:05:08.224Z,7.95
2022-08-25T07:07:43.738Z,8.20
2022-08-25T07:10:11.047Z,7.70
2022-08-25T07:12:37.410Z,7.20
2022-08-25T07:15:19.559Z,7.72
2022-08-25T07:17:46.769Z,7.35
2022-08-25T07:20:13.918Z,7.78
2022-08-25T07:22:40.911Z,7.50
2022-08-25T07:25:08.655Z,8.23
2022-08-25T07:27:35.035Z,7.18
2022-08-25T07:30:01.514Z,7.20
2022-08-25T07:32:30.834Z,7.65
2022-08-25T07:35:15.416Z,8.10
2022-08-25T07:37:50.210Z,7.28
2022-08-25T07:40:29.697Z,7.55
2022-08-25T07:42:58.478Z,7.93
2022-08-25T07:45:31.181Z,8.07
2022-08-25T07:47:59.726Z,7.13
2022-08-25T07:50:27.958Z,7.60
2022-08-25T07:52:55.049Z,7.38
2022-08-25T07:55:23.551Z,7.97
2022-08-25T07:57:56.077Z,7.45
2022-08-25T08:00:24.584Z,7.03
2022-08-25T08:02:51.415Z,7.43
2022-08-25T08:05:17.861Z,7.10
2022-08-25T08:07:47.226Z,7.60
2022-08-25T08:10:48.132Z,7.13
2022-08-25T08:13:02.055Z,7.22
2022-08-25T08:15:29.827Z,7.15
2022-08-25T08:17:56.534Z,7.05
2022-08-25T08:20:24.546Z,6.82
2022-08-25T08:22:50.935Z,7.38
2022-08-25T08:25:18.773Z,7.60
2022-08-25T08:27:48.076Z,7.05
2022-08-25T08:30:17.437Z,6.88
2022-08-25T08:33:08.541Z,6.65
2022-08-25T08:35:30.559Z,6.70
2022-08-25T08:37:56.949Z,7.10
2022-08-25T08:40:23.399Z,7.78
2022-08-25T08:43:07.332Z,6.72
2022-08-25T08:45:53.639Z,7.00
2022-08-25T08:48:36.715Z,7.05
2022-08-25T08:51:32.713Z,6.40
2022-08-25T08:54:15.351Z,6.75
2022-08-25T08:56:48.001Z,6.93
2022-08-25T08:59:20.966Z,6.63
2022-08-25T09:01:50.679Z,6.07
2022-08-25T09:04:26.582Z,6.25
2022-08-25T09:09:30.159Z,5.97
2022-08-25T09:12:10.543Z,5.88
2022-08-25T09:14:55.366Z,6.10
2022-08-25T09:17:29.319Z,6.32
2022-08-25T09:20:26.837Z,5.45
2022-08-25T09:23:08.164Z,6.22
2022-08-25T09:25:53.391Z,6.13
2022-08-25T09:28:36.931Z,6.05
2022-08-25T09:31:08.884Z,5.93
2022-08-25T09:33:35.798Z,6.18
2022-08-25T09:36:06.180Z,6.05
2022-08-25T09:38:36.257Z,5.75
2022-08-25T09:41:03.620Z,6.53
2022-08-25T09:43:37.096Z,6.07
2022-08-25T09:46:16.739Z,6.50
2022-08-25T09:48:56.019Z,7.23
2022-08-25T09:51:42.359Z,7.18
2022-08-25T09:54:18.270Z,6.38
2022-08-25T09:56:54.604Z,5.45
2022-08-25T09:59:34.156Z,5.68
2022-08-25T10:02:23.506Z,6.68
2022-08-25T10:04:50.028Z,5.85
2022-08-25T10:07:39.583Z,6.63
2022-08-25T10:10:22.932Z,5.80
2022-08-25T10:12:51.269Z,6.15
2022-08-25T10:15:29.632Z,5.60
2022-08-25T10:18:17.381Z,6.00
2022-08-25T10:20:44.703Z,5.68
2022-08-25T10:23:14.100Z,7.00
2022-08-25T10:25:59.270Z,5.95
2022-08-25T10:28:41.510Z,5.63
2022-08-25T10:31:10.718Z,5.53
2022-08-25T10:33:42.961Z,5.32
2022-08-25T10:36:20.358Z,5.57
2022-08-25T10:39:01.663Z,5.32
2022-08-25T10:41:33.866Z,6.13
2022-08-25T10:44:43.185Z,5.95
2022-08-25T10:47:47.115Z,5.90
2022-08-25T10:50:36.785Z,5.50
2022-08-25T10:53:29.075Z,5.88
2022-08-25T10:55:55.319Z,5.95
2022-08-25T10:58:48.157Z,6.03
2022-08-25T11:01:42.917Z,5.13
2022-08-25T11:06:47.590Z,5.68
2022-08-25T11:09:21.289Z,5.40
2022-08-25T11:12:00.232Z,5.65
2022-08-25T11:14:34.589Z,5.82
2022-08-25T11:17:14.190Z,5.95
2022-08-25T11:19:46.018Z,4.88
2022-08-25T11:22:34.627Z,5.72
2022-08-25T11:25:11.098Z,5.63
2022-08-25T11:27:43.648Z,5.15
2022-08-25T11:30:16.579Z,5.68
2022-08-25T11:32:48.911Z,5.90
2022-08-25T11:35:18.159Z,6.15
2022-08-25T11:38:12.256Z,5.85
2022-08-25T11:40:57.325Z,5.70
2022-08-25T11:43:35.534Z,6.22
2022-08-25T11:46:17.069Z,5.03
2022-08-25T11:49:08.054Z,5.30
2022-08-25T11:51:43.324Z,5.50
2022-08-25T11:54:29.608Z,5.90
2022-08-25T11:57:06.429Z,6.38
2022-08-25T11:59:51.619Z,5.57
2022-08-25T12:02:36.413Z,5.47
2022-08-25T12:05:17.443Z,5.45
2022-08-25T12:07:46.824Z,5.13
2022-08-25T12:10:25.303Z,5.20
2022-08-25T12:13:10.278Z,4.57
2022-08-25T12:15:42.771Z,5.20
2022-08-25T12:18:22.611Z,4.72
2022-08-25T12:20:57.837Z,4.57
2022-08-25T12:23:45.827Z,4.75
2022-08-25T12:26:25.749Z,4.82
2022-08-25T12:29:11.425Z,4.65
2022-08-25T12:32:04.961Z,6.28
2022-08-25T12:34:58.806Z,5.93
2022-08-25T12:37:25.824Z,5.68
2022-08-25T12:39:59.860Z,5.55
2022-08-25T12:42:38.119Z,5.95
2022-08-25T12:45:15.651Z,5.22
2022-08-25T12:47:47.419Z,5.07
2022-08-25T12:50:35.385Z,5.05
2022-08-25T12:53:30.349Z,4.15
2022-08-25T12:56:19.381Z,4.75
2022-08-25T12:59:18.471Z,4.25
2022-08-25T13:02:02.913Z,4.10
2022-08-25T13:04:46.818Z,4.15
2022-08-25T13:07:34.375Z,4.05
2022-08-25T13:10:38.791Z,4.05
2022-08-25T13:13:45.852Z,4.22
2022-08-25T13:16:29.049Z,3.90
2022-08-25T13:18:59.137Z,4.03
2022-08-25T13:21:37.197Z,4.07
2022-08-25T13:24:06.862Z,4.18
2022-08-25T13:26:37.897Z,4.20
2022-08-25T13:29:19.366Z,4.13
2022-08-25T13:32:03.359Z,3.78
2022-08-25T13:34:42.803Z,4.03
2022-08-25T13:37:31.359Z,4.25
2022-08-25T13:40:16.382Z,4.93
2022-08-25T13:42:52.943Z,4.32
2022-08-25T13:45:25.139Z,4.40
2022-08-25T13:47:55.970Z,4.32
2022-08-25T13:50:26.441Z,4.57
2022-08-25T13:52:59.007Z,4.70
2022-08-25T13:55:38.302Z,4.85
2022-08-25T13:58:24.181Z,4.07
2022-08-25T14:01:22.233Z,4.68
2022-08-25T14:03:55.545Z,4.28
2022-08-25T14:06:27.641Z,4.03
2022-08-25T14:09:00.185Z,4.25
2022-08-25T14:11:32.143Z,3.80
2022-08-25T14:14:12.396Z,3.88
2022-08-25T14:16:46.689Z,4.22
2022-08-25T14:19:19.824Z,4.65
2022-08-25T14:21:47.246Z,4.00
2022-08-25T14:24:17.164Z,4.10
2022-08-25T14:26:54.237Z,4.40
2022-08-25T14:29:21.973Z,4.05
2022-08-25T14:31:48.485Z,5.18
2022-08-25T14:34:22.014Z,4.75
2022-08-25T14:36:48.794Z,4.53
2022-08-25T14:39:15.532Z,4.22
2022-08-25T14:41:45.319Z,4.70
2022-08-25T14:44:17.859Z,4.13
2022-08-25T14:46:50.561Z,3.92
2022-08-25T14:49:33.644Z,4.60
2022-08-25T14:52:06.798Z,4.28
2022-08-25T14:54:35.842Z,4.20
2022-08-25T14:57:04.114Z,4.13
2022-08-25T14:59:34.991Z,4.10
2022-08-25T15:02:01.490Z,3.92
2022-08-25T15:04:29.066Z,4.53
2022-08-25T15:06:58.818Z,4.00
2022-08-25T15:09:25.682Z,3.90
2022-08-25T15:11:59.803Z,3.83
2022-08-25T15:14:29.009Z,3.90
2022-08-25T15:16:59.838Z,3.97
2022-08-25T15:19:27.156Z,3.75
2022-08-25T15:21:54.461Z,3.90
2022-08-25T15:24:25.585Z,4.15
2022-08-25T15:29:29.853Z,3.97
2022-08-25T15:31:57.367Z,4.03
2022-08-25T15:34:23.846Z,3.95
2022-08-25T15:36:50.523Z,3.90
2022-08-25T15:39:18.063Z,5.72
2022-08-25T15:41:49.401Z,4.97
2022-08-25T15:44:16.460Z,4.28
2022-08-25T15:46:46.901Z,4.15
2022-08-25T15:49:20.247Z,4.28
2022-08-25T15:51:47.369Z,4.82
2022-08-25T15:54:14.769Z,5.22
2022-08-25T15:56:41.246Z,6.10
2022-08-25T15:59:09.529Z,5.32
2022-08-25T16:01:36.052Z,4.05
2022-08-25T16:04:03.439Z,4.30
2022-08-25T16:06:30.264Z,5.10
2022-08-25T16:08:56.698Z,5.80
2022-08-25T16:11:25.809Z,5.80
2022-08-25T16:13:53.560Z,4.43
2022-08-25T16:16:21.684Z,4.93
2022-08-25T16:18:48.250Z,4.75
2022-08-25T16:21:17.285Z,4.60
2022-08-25T16:23:44.256Z,4.10
2022-08-25T16:26:10.958Z,4.75
2022-08-25T16:28:40.373Z,4.70
2022-08-25T16:31:12.123Z,6.47
2022-08-25T16:33:38.728Z,5.88
2022-08-25T16:36:11.031Z,4.20
2022-08-25T16:38:38.746Z,4.30
2022-08-25T16:41:13.085Z,4.30
2022-08-25T16:43:40.529Z,4.70
2022-08-25T16:46:10.619Z,4.63
2022-08-25T16:48:38.106Z,5.20
2022-08-25T16:51:16.250Z,4.65
2022-08-25T16:54:04.581Z,5.45
2022-08-25T16:56:34.227Z,4.65
2022-08-25T16:59:01.566Z,6.30
2022-08-25T17:01:29.888Z,4.57
2022-08-25T17:03:57.797Z,4.80
2022-08-25T17:06:27.065Z,4.70
2022-08-25T17:08:53.760Z,4.43
2022-08-25T17:11:21.675Z,4.20
2022-08-25T17:13:53.050Z,4.07
2022-08-25T17:16:22.422Z,4.22
2022-08-25T17:18:48.929Z,4.75
2022-08-25T17:21:24.550Z,4.88
2022-08-25T17:23:52.516Z,4.40
2022-08-25T17:26:19.751Z,4.80
2022-08-25T17:28:54.110Z,4.40
2022-08-25T17:31:20.818Z,4.35
2022-08-25T17:33:47.991Z,4.63
2022-08-25T17:36:17.334Z,4.38
2022-08-25T17:38:45.053Z,4.22
2022-08-25T17:41:11.714Z,4.90
2022-08-25T17:43:41.022Z,4.60
2022-08-25T17:46:08.400Z,4.45
2022-08-25T17:48:35.921Z,4.35
2022-08-25T17:51:03.376Z,4.35
2022-08-25T17:53:29.862Z,4.72
2022-08-25T17:56:08.466Z,4.40
2022-08-25T17:58:35.300Z,4.32
2022-08-25T18:01:02.563Z,4.85
2022-08-25T18:03:29.231Z,4.90
2022-08-25T18:05:56.989Z,4.70
2022-08-25T18:08:32.130Z,4.53
2022-08-25T18:11:01.870Z,3.85
2022-08-25T18:13:29.633Z,4.82
2022-08-25T18:15:55.999Z,4.45
2022-08-25T18:18:24.230Z,3.95
2022-08-25T18:20:50.983Z,4.90
2022-08-25T18:23:19.412Z,4.65
2022-08-25T18:25:46.257Z,5.13
2022-08-25T18:28:14.019Z,4.90
2022-08-25T18:30:40.656Z,4.07
2022-08-25T18:33:07.280Z,4.60
2022-08-25T18:35:33.653Z,5.00
2022-08-25T18:38:18.737Z,5.18
2022-08-25T18:40:47.670Z,4.78
2022-08-25T18:43:14.310Z,5.00
2022-08-25T18:45:42.134Z,4.60
2022-08-25T18:48:08.997Z,3.97
2022-08-25T18:50:37.457Z,4.40
2022-08-25T18:53:04.057Z,4.22
2022-08-25T18:55:32.807Z,4.20
2022-08-25T18:57:59.251Z,4.65
2022-08-25T19:00:28.021Z,4.15
2022-08-25T19:02:56.064Z,4.30
2022-08-25T19:05:32.683Z,4.85
2022-08-25T19:08:05.479Z,4.85
2022-08-25T19:10:32.899Z,4.28
2022-08-25T19:13:08.180Z,4.20
2022-08-25T19:15:35.628Z,4.17
2022-08-25T19:18:02.046Z,3.80
2022-08-25T19:20:31.758Z,3.90
2022-08-25T19:22:58.518Z,3.85
2022-08-25T19:25:25.383Z,4.13
2022-08-25T19:28:00.313Z,3.95
2022-08-25T19:30:28.513Z,4.10
2022-08-25T19:32:56.023Z,4.68
2022-08-25T19:35:34.084Z,3.78
2022-08-25T19:38:01.184Z,4.85
2022-08-25T19:40:28.749Z,4.53
2022-08-25T19:42:55.222Z,4.10
2022-08-25T19:45:23.519Z,3.70
2022-08-25T19:47:50.271Z,3.75
2022-08-25T19:50:18.835Z,3.70
2022-08-25T19:52:46.068Z,4.22
2022-08-25T19:55:16.435Z,4.32
2022-08-25T19:57:43.630Z,4.55
2022-08-25T20:00:22.722Z,3.83
2022-08-25T20:02:50.804Z,4.25
2022-08-25T20:05:23.771Z,6.90
2022-08-25T20:07:52.445Z,6.30
2022-08-25T20:10:20.586Z,5.47
2022-08-25T20:12:46.987Z,5.22
2022-08-25T20:15:14.407Z,5.32
2022-08-25T20:17:43.057Z,5.13
2022-08-25T20:20:15.701Z,5.15
2022-08-25T20:22:42.298Z,5.32
2022-08-25T20:25:16.303Z,5.15
2022-08-25T20:27:47.414Z,5.38
2022-08-25T20:30:18.281Z,4.57
2022-08-25T20:32:45.702Z,4.38
2022-08-25T20:35:14.125Z,5.35
2022-08-25T20:37:41.849Z,5.20
2022-08-25T20:40:09.091Z,4.93
2022-08-25T20:42:36.069Z,5.03
2022-08-25T20:45:04.691Z,5.10
2022-08-25T20:47:31.062Z,5.18
2022-08-25T20:50:00.373Z,4.78
2022-08-25T20:52:31.460Z,4.72
2022-08-25T20:54:57.806Z,4.60
2022-08-25T20:57:26.101Z,4.68
2022-08-25T20:59:52.845Z,4.82
2022-08-25T21:02:19.908Z,4.68
2022-08-25T21:04:48.944Z,4.57
2022-08-25T21:07:17.183Z,4.70
2022-08-25T21:09:43.551Z,4.47
2022-08-25T21:12:09.980Z,4.07
2022-08-25T21:14:38.524Z,4.20
2022-08-25T21:17:05.029Z,4.28
2022-08-25T21:19:31.743Z,4.50
2022-08-25T21:22:00.261Z,4.55
2022-08-25T21:24:28.002Z,4.22
2022-08-25T21:26:56.323Z,4.20
2022-08-25T21:29:24.141Z,3.70
2022-08-25T21:31:50.742Z,4.20
2022-08-25T21:34:18.608Z,3.92
2022-08-25T21:36:45.755Z,4.15
2022-08-25T21:39:12.138Z,4.47
2022-08-25T21:41:40.277Z,4.30
2022-08-25T21:44:07.757Z,3.75
2022-08-25T21:46:36.032Z,4.25
2022-08-25T21:49:05.910Z,4.00
2022-08-25T21:51:40.536Z,3.95
2022-08-25T21:54:09.848Z,4.20
2022-08-25T21:56:38.167Z,3.88
2022-08-25T21:59:06.082Z,3.88
2022-08-25T22:01:33.659Z,3.90
2022-08-25T22:04:02.100Z,3.88
2022-08-25T22:06:28.965Z,3.85
2022-08-25T22:08:55.970Z,4.28
2022-08-25T22:11:23.260Z,3.78
2022-08-25T22:13:50.807Z,4.47
2022-08-25T22:16:21.985Z,4.43
2022-08-25T22:18:49.777Z,4.10
2022-08-25T22:21:23.579Z,4.57
2022-08-25T22:23:50.705Z,3.92
2022-08-25T22:26:20.756Z,4.40
2022-08-25T22:28:48.658Z,4.32
2022-08-25T22:31:21.002Z,4.38
2022-08-25T22:33:47.954Z,4.10
2022-08-25T22:36:19.194Z,4.05
2022-08-25T22:38:47.151Z,4.53
2022-08-25T22:41:19.157Z,4.03
2022-08-25T22:43:49.236Z,4.50
2022-08-25T22:46:17.137Z,4.80
2022-08-25T22:48:44.426Z,4.68
2022-08-25T22:51:17.752Z,4.30
2022-08-25T22:53:46.019Z,4.03
2022-08-25T22:56:13.953Z,4.55
2022-08-25T22:58:51.804Z,4.25
2022-08-25T23:01:19.750Z,4.40
2022-08-25T23:03:46.400Z,4.65
2022-08-25T23:06:20.733Z,3.85
2022-08-25T23:08:49.373Z,3.83
2022-08-25T23:11:16.630Z,3.78
2022-08-25T23:13:43.028Z,3.83
2022-08-25T23:16:10.025Z,4.07
2022-08-25T23:18:41.804Z,3.85
2022-08-25T23:21:29.405Z,4.38
2022-08-25T23:24:01.678Z,3.97
2022-08-25T23:26:28.641Z,3.65
2022-08-25T23:28:55.077Z,3.60
2022-08-25T23:31:21.491Z,4.03
2022-08-25T23:33:50.791Z,3.92
2022-08-25T23:36:17.413Z,4.47
2022-08-25T23:38:45.495Z,4.15
2022-08-25T23:43:49.017Z,3.58
2022-08-25T23:46:17.997Z,4.18
2022-08-25T23:48:44.850Z,3.72
2022-08-25T23:51:12.089Z,3.72
2022-08-25T23:53:39.035Z,4.07
2022-08-25T23:56:06.248Z,3.75
2022-08-25T23:58:32.653Z,4.05
